Time;durP1;ratioP1;P1;durP2;ratioP2;P2;SDS_P1;SDS_P2;PMS_P1;PMS_P2;Temp;Humidity;BMP_temperature;BMP_pressure;BME280_temperature;BME280_humidity;BME280_pressure;Samples;Min_cycle;Max_cycle;Signal;HPM_P1;HPM_P2
2022/05/20 00:01:55;;;;;;;;;23.75;22.50;;;;;18.39;69.81;100406.53;5035944;28;8860;-64
2022/05/20 00:04:23;;;;;;;;;25.00;21.75;;;;;18.36;69.55;100401.44;5036695;28;8848;-63
2022/05/20 00:06:51;;;;;;;;;27.00;24.25;;;;;18.35;69.64;100409.69;5036290;28;8833;-63
2022/05/20 00:09:19;;;;;;;;;21.75;19.75;;;;;18.30;69.92;100404.78;5036660;28;8878;-63
2022/05/20 00:11:47;;;;;;;;;24.75;20.00;;;;;18.27;69.92;100404.22;5035771;28;8849;-64
2022/05/20 00:14:14;;;;;;;;;25.75;24.50;;;;;18.25;69.70;100407.09;5034357;28;8859;-63
2022/05/20 00:16:42;;;;;;;;;27.25;23.00;;;;;18.24;69.89;100410.78;5035566;28;8970;-64
2022/05/20 00:19:10;;;;;;;;;19.00;16.00;;;;;18.23;69.82;100411.78;5036494;28;8844;-64
2022/05/20 00:21:41;;;;;;;;;26.75;22.00;;;;;18.23;69.62;100414.47;5036017;28;8828;-66
2022/05/20 00:24:09;;;;;;;;;25.50;23.50;;;;;18.23;69.78;100409.06;5036243;28;8963;-64
2022/05/20 00:26:37;;;;;;;;;25.00;23.75;;;;;18.23;69.57;100411.78;5042487;28;8825;-64
2022/05/20 00:29:04;;;;;;;;;27.75;22.25;;;;;18.24;69.62;100410.78;5038078;28;8840;-64
2022/05/20 00:31:33;;;;;;;;;32.75;28.75;;;;;18.23;69.50;100406.38;5035794;28;8840;-64
2022/05/20 00:34:01;;;;;;;;;33.50;30.00;;;;;18.24;70.03;100420.72;5036325;28;8856;-64
2022/05/20 00:36:28;;;;;;;;;34.50;31.00;;;;;18.22;69.86;100412.78;5036516;28;9579;-63
2022/05/20 00:38:57;;;;;;;;;33.50;27.00;;;;;18.23;69.76;100406.38;5036255;28;8959;-64
2022/05/20 00:41:25;;;;;;;;;36.25;33.50;;;;;18.19;69.63;100412.25;5035423;28;9629;-63
2022/05/20 00:43:53;;;;;;;;;36.00;30.00;;;;;18.15;69.54;100416.28;5035965;28;8918;-64
2022/05/20 00:46:20;;;;;;;;;28.00;26.00;;;;;18.10;70.01;100408.69;5035558;28;9553;-64
2022/05/20 00:48:51;;;;;;;;;37.00;30.50;;;;;18.07;70.08;100411.66;5034994;28;8925;-67
2022/05/20 00:51:19;;;;;;;;;31.00;30.00;;;;;18.06;69.64;100417.25;5035091;28;9526;-64
2022/05/20 00:53:47;;;;;;;;;31.00;27.50;;;;;18.02;69.87;100423.94;5034778;28;8971;-63
2022/05/20 00:56:14;;;;;;;;;24.25;21.25;;;;;17.98;70.38;100420.72;5035179;28;8841;-64
2022/05/20 00:58:42;;;;;;;;;31.75;28.50;;;;;17.94;70.13;100427.44;5047207;28;8830;-64
2022/05/20 01:01:10;;;;;;;;;28.75;26.00;;;;;17.92;70.16;100424.03;5054809;28;9599;-64
2022/05/20 01:03:38;;;;;;;;;29.25;28.00;;;;;17.90;69.78;100423.34;5055787;28;8838;-63
2022/05/20 01:06:05;;;;;;;;;27.75;24.50;;;;;17.89;69.93;100420.78;5055457;28;8854;-63
2022/05/20 01:08:33;;;;;;;;;24.50;21.75;;;;;17.88;70.26;100416.41;5055737;28;8842;-64
2022/05/20 01:11:01;;;;;;;;;26.00;22.75;;;;;17.85;69.79;100414.03;5055750;28;9504;-64
2022/05/20 01:13:29;;;;;;;;;20.25;16.00;;;;;17.82;69.95;100419.72;5055152;28;8838;-64
2022/05/20 01:15:56;;;;;;;;;27.75;24.50;;;;;17.79;70.04;100418.22;5055772;28;8888;-63
2022/05/20 01:18:24;;;;;;;;;32.00;28.75;;;;;17.79;70.17;100418.22;5055799;28;8988;-63
2022/05/20 01:20:52;;;;;;;;;27.50;23.00;;;;;17.77;69.94;100416.69;5055547;28;8835;-64
2022/05/20 01:23:20;;;;;;;;;34.75;29.00;;;;;17.74;70.25;100415.13;5055388;28;8973;-63
2022/05/20 01:25:48;;;;;;;;;24.75;21.75;;;;;17.74;69.98;100425.91;5055226;28;8862;-63
2022/05/20 01:28:16;;;;;;;;;21.75;19.25;;;;;17.71;70.26;100420.84;5045891;28;9509;-63
2022/05/20 01:30:44;;;;;;;;;28.75;25.25;;;;;17.70;69.92;100427.22;5047232;28;8823;-64
2022/05/20 01:33:12;;;;;;;;;26.25;24.50;;;;;17.67;70.29;100426.69;5055245;28;8866;-63
2022/05/20 01:35:40;;;;;;;;;29.50;27.00;;;;;17.65;69.92;100413.38;5055969;28;8830;-64
2022/05/20 01:38:08;;;;;;;;;29.00;23.25;;;;;17.62;69.80;100421.75;5056965;28;8981;-64
2022/05/20 01:40:36;;;;;;;;;26.50;23.50;;;;;17.60;70.01;100420.25;5059310;28;8872;-64
2022/05/20 01:43:04;;;;;;;;;32.00;26.00;;;;;17.58;69.94;100417.69;5059057;28;8822;-64
2022/05/20 01:45:32;;;;;;;;;28.33;24.33;;;;;17.56;70.17;100414.31;5059024;28;8822;-64
2022/05/20 01:48:02;;;;;;;;;27.25;25.50;;;;;17.54;70.32;100412.78;5058682;28;9499;-64
2022/05/20 01:50:30;;;;;;;;;24.00;21.50;;;;;17.54;70.33;100412.78;5059135;28;8842;-64
2022/05/20 01:52:57;;;;;;;;;29.00;23.50;;;;;17.52;69.91;100410.22;5058760;28;8927;-64
2022/05/20 01:55:25;;;;;;;;;25.25;25.00;;;;;17.52;70.17;100414.75;5058241;28;8842;-64
2022/05/20 01:57:53;;;;;;;;;25.00;24.00;;;;;17.52;70.21;100412.06;5053251;28;8866;-64
2022/05/20 02:00:21;;;;;;;;;9.25;9.25;;;;;17.51;70.24;100410.38;5038761;28;8855;-63
2022/05/20 02:02:49;;;;;;;;;23.50;21.00;;;;;17.52;70.03;100403.97;5039200;28;8853;-63
2022/05/20 02:05:17;;;;;;;;;27.25;25.25;;;;;17.51;69.85;100397.75;5039127;28;8852;-64
2022/05/20 02:07:45;;;;;;;;;24.25;21.75;;;;;17.54;69.48;100404.69;5038748;28;8852;-64
2022/05/20 02:10:13;;;;;;;;;23.00;21.50;;;;;17.53;70.08;100395.75;5039269;28;8836;-64
2022/05/20 02:12:41;;;;;;;;;24.75;23.25;;;;;17.53;69.50;100398.44;5039633;28;8939;-65
2022/05/20 02:15:09;;;;;;;;;26.00;24.50;;;;;17.54;69.60;100400.13;5038362;28;8816;-64
2022/05/20 02:17:37;;;;;;;;;27.75;24.75;;;;;17.54;69.38;100394.75;5038372;28;8832;-63
2022/05/20 02:20:05;;;;;;;;;28.00;27.50;;;;;17.56;69.47;100397.28;5037025;28;8844;-63
2022/05/20 02:22:33;;;;;;;;;31.25;27.75;;;;;17.57;69.52;100388.22;5037694;28;8845;-63
2022/05/20 02:25:00;;;;;;;;;30.75;26.00;;;;;17.56;69.72;100398.16;5038409;28;8824;-63
2022/05/20 02:27:28;;;;;;;;;33.25;27.75;;;;;17.56;69.37;100398.16;5040336;28;8846;-63
2022/05/20 02:29:56;;;;;;;;;31.75;27.25;;;;;17.55;70.08;100385.66;5057941;28;8857;-63
2022/05/20 02:32:24;;;;;;;;;40.00;32.50;;;;;17.55;69.73;100380.28;5058554;28;9012;-63
2022/05/20 02:34:52;;;;;;;;;27.00;25.25;;;;;17.55;70.06;100380.28;5058191;28;8844;-63
2022/05/20 02:37:20;;;;;;;;;27.25;25.25;;;;;17.55;69.33;100380.28;5057930;28;8957;-63
2022/05/20 02:39:48;;;;;;;;;26.75;25.00;;;;;17.51;69.90;100384.28;5058066;28;8844;-63
2022/05/20 02:42:16;;;;;;;;;30.75;28.25;;;;;17.50;69.81;100389.81;5058002;28;8838;-65
2022/05/20 02:44:43;;;;;;;;;24.25;21.75;;;;;17.48;69.68;100391.84;5057624;28;8846;-63
2022/05/20 02:47:11;;;;;;;;;30.00;27.00;;;;;17.44;69.82;100383.22;5058476;28;8989;-63
2022/05/20 02:49:39;;;;;;;;;33.50;30.00;;;;;17.40;69.71;100389.91;5056962;28;8826;-63
2022/05/20 02:52:07;;;;;;;;;34.25;29.50;;;;;17.35;70.01;100380.56;5058130;28;8834;-63
2022/05/20 02:54:34;;;;;;;;;29.00;26.00;;;;;17.30;70.03;100381.03;5058343;28;9009;-63
2022/05/20 02:57:03;;;;;;;;;26.75;24.75;;;;;17.26;70.48;100385.06;5057694;28;8854;-64
2022/05/20 03:05:01;;;;;;;;;33.00;27.50;;;;;17.20;70.24;100376.72;5037499;28;9042;-64
2022/05/20 03:07:28;;;;;;;;;33.00;27.00;;;;;17.19;70.00;100378.59;5038021;28;8858;-64
2022/05/20 03:10:00;;;;;;;;;32.25;27.25;;;;;17.21;70.36;100387.34;5037449;28;8828;-64
2022/05/20 03:12:28;;;;;;;;;32.00;27.25;;;;;17.20;70.16;100377.59;5037641;28;8981;-64
2022/05/20 03:14:56;;;;;;;;;27.50;25.00;;;;;17.20;70.38;100384.78;5036982;28;8859;-64
2022/05/20 03:17:24;;;;;;;;;33.00;31.25;;;;;17.19;70.16;100385.81;5037475;28;8882;-64
2022/05/20 03:19:52;;;;;;;;;28.25;25.75;;;;;17.18;70.08;100384.13;5037098;28;8863;-64
2022/05/20 03:22:19;;;;;;;;;34.25;32.25;;;;;17.18;70.39;100392.19;5036277;28;8837;-64
2022/05/20 03:24:47;;;;;;;;;34.25;31.25;;;;;17.17;69.94;100394.03;5035825;28;8879;-63
2022/05/20 03:27:16;;;;;;;;;28.00;24.75;;;;;17.17;69.98;100394.03;5037824;28;8849;-65
2022/05/20 03:29:44;;;;;;;;;31.00;28.00;;;;;17.18;70.11;100384.97;5055193;28;8869;-64
2022/05/20 03:32:12;;;;;;;;;22.75;21.75;;;;;17.18;70.29;100381.44;5056326;28;8866;-64
2022/05/20 03:34:40;;;;;;;;;28.00;26.00;;;;;17.19;70.22;100373.19;5056409;28;8826;-64
2022/05/20 03:37:07;;;;;;;;;27.75;25.00;;;;;17.20;69.90;100374.91;5057004;28;8830;-64
2022/05/20 03:39:36;;;;;;;;;34.00;30.50;;;;;17.20;70.21;100372.19;5056706;28;8846;-64
2022/05/20 03:42:03;;;;;;;;;35.75;32.00;;;;;17.18;70.43;100373.34;5056701;28;8842;-63
2022/05/20 03:44:31;;;;;;;;;26.75;24.00;;;;;17.15;70.17;100377.19;5056927;28;8850;-63
2022/05/20 03:46:59;;;;;;;;;26.75;25.00;;;;;17.15;70.48;100373.66;5056667;28;8822;-66
2022/05/20 03:49:27;;;;;;;;;37.25;32.75;;;;;17.15;70.42;100369.13;5057274;28;8818;-64
2022/05/20 03:51:55;;;;;;;;;36.25;32.50;;;;;17.16;69.98;100373.50;5057172;28;8869;-64
2022/05/20 03:54:22;;;;;;;;;39.00;33.75;;;;;17.19;70.17;100380.41;5056474;28;8838;-63
2022/05/20 03:56:50;;;;;;;;;32.50;28.50;;;;;17.23;69.75;100381.81;5055711;28;8827;-64
2022/05/20 03:59:19;;;;;;;;;22.75;19.75;;;;;17.25;70.12;100377.94;5037327;28;8813;-64
2022/05/20 04:01:57;;;;;;;;;29.75;28.75;;;;;17.33;69.90;100374.50;5036845;28;8872;-64
2022/05/20 04:04:26;;;;;;;;;30.75;27.75;;;;;17.38;69.35;100378.44;5036508;28;8836;-64
2022/05/20 04:06:53;;;;;;;;;34.00;27.50;;;;;17.40;69.83;100371.06;5035981;28;9522;-64
2022/05/20 04:09:21;;;;;;;;;18.75;17.00;;;;;17.45;69.64;100370.63;5035939;28;8832;-64
2022/05/20 04:11:49;;;;;;;;;35.25;32.00;;;;;17.49;69.57;100367.47;5035481;28;8843;-64
2022/05/20 04:14:17;;;;;;;;;30.50;28.50;;;;;17.54;69.05;100367.81;5036698;28;8840;-63
2022/05/20 04:16:45;;;;;;;;;31.75;28.25;;;;;17.60;69.14;100361.81;5036688;28;8841;-64
2022/05/20 04:19:12;;;;;;;;;35.75;30.50;;;;;17.62;69.19;100359.81;5036597;28;8840;-64
2022/05/20 04:21:41;;;;;;;;;33.25;30.00;;;;;17.63;69.39;100360.66;5036175;28;9580;-64
2022/05/20 04:24:09;;;;;;;;;35.00;31.50;;;;;17.62;69.01;100357.09;5035783;28;8840;-64
2022/05/20 04:26:36;;;;;;;;;25.50;22.75;;;;;17.63;69.11;100377.66;5035968;28;8828;-64
2022/05/20 04:29:04;;;;;;;;;25.50;25.25;;;;;17.61;69.35;100368.88;5052805;28;8846;-64
2022/05/20 04:31:32;;;;;;;;;30.00;25.00;;;;;17.60;69.56;100377.97;5054463;28;8974;-65
2022/05/20 04:33:59;;;;;;;;;31.00;29.00;;;;;17.63;69.24;100376.81;5054807;28;8823;-63
2022/05/20 04:36:27;;;;;;;;;36.50;33.50;;;;;17.64;69.19;100383.91;5055218;28;8826;-63
2022/05/20 04:38:56;;;;;;;;;28.50;27.25;;;;;17.64;69.13;100376.69;5054861;28;8838;-63
2022/05/20 04:47:01;;;;;;;;;30.50;30.00;;;;;17.65;69.13;100389.13;5055974;28;8929;-63
2022/05/20 04:49:29;;;;;;;;;31.25;29.00;;;;;17.61;69.52;100395.81;5055484;28;8830;-63
2022/05/20 04:51:57;;;;;;;;;33.50;29.25;;;;;17.58;69.40;100393.44;5055737;28;8835;-63
2022/05/20 04:57:10;;;;;;;;;25.75;23.50;;;;;17.60;69.61;100398.69;5052034;28;8848;-62
2022/05/20 04:59:38;;;;;;;;;29.25;25.75;;;;;17.62;69.59;100400.19;5035285;28;8848;-63
2022/05/20 05:02:07;;;;;;;;;31.50;28.50;;;;;17.67;69.19;100392.50;5035667;28;8860;-63
2022/05/20 05:04:35;;;;;;;;;25.50;23.00;;;;;17.73;69.85;100399.13;5035531;28;8848;-63
2022/05/20 05:07:02;;;;;;;;;33.50;31.00;;;;;17.76;68.89;100388.88;5035413;28;8832;-63
2022/05/20 05:09:31;;;;;;;;;26.00;23.00;;;;;17.82;68.79;100390.94;5035107;28;8857;-63
2022/05/20 05:11:58;;;;;;;;;37.25;29.50;;;;;17.89;68.78;100399.25;5034090;28;8843;-63
2022/05/20 05:14:32;;;;;;;;;31.75;24.00;;;;;17.96;68.75;100390.38;5038911;28;8849;-63
2022/05/20 05:17:00;;;;;;;;;33.25;29.75;;;;;18.02;68.36;100378.97;5039441;28;8836;-63
2022/05/20 05:19:28;;;;;;;;;21.25;18.50;;;;;18.06;68.28;100371.41;5039164;28;9510;-63
2022/05/20 05:21:55;;;;;;;;;27.00;24.75;;;;;18.12;68.51;100374.31;5039999;28;8866;-63
2022/05/20 05:24:23;;;;;;;;;29.50;23.50;;;;;18.19;68.39;100369.97;5038941;28;8844;-63
2022/05/20 05:26:51;;;;;;;;;35.50;30.25;;;;;18.26;68.24;100365.63;5039144;28;8848;-63
2022/05/20 05:29:18;;;;;;;;;32.00;27.75;;;;;18.31;68.18;100363.34;5058142;28;8838;-63
2022/05/20 05:31:46;;;;;;;;;35.50;30.75;;;;;18.37;68.01;100357.28;5059082;28;8878;-63
2022/05/20 05:34:14;;;;;;;;;29.50;27.50;;;;;18.41;67.90;100364.06;5058269;28;8822;-63
2022/05/20 05:36:41;;;;;;;;;30.50;24.75;;;;;18.43;67.78;100353.94;5058121;28;9479;-63
2022/05/20 05:39:09;;;;;;;;;31.00;28.25;;;;;18.43;68.18;100353.13;5054428;28;8849;-63
2022/05/20 05:41:37;;;;;;;;;27.50;26.75;;;;;18.42;67.81;100349.56;5057225;28;8840;-63
2022/05/20 05:44:05;;;;;;;;;26.25;24.00;;;;;18.48;67.83;100351.63;5038055;28;8958;-63
2022/05/20 05:46:33;;;;;;;;;23.50;21.75;;;;;18.60;67.92;100347.59;5037103;28;8840;-62
2022/05/20 05:49:00;;;;;;;;;25.00;20.75;;;;;18.75;67.65;100337.88;5037268;28;8856;-63
2022/05/20 05:51:28;;;;;;;;;24.25;21.50;;;;;18.83;66.89;100346.00;5037684;28;8844;-63
2022/05/20 05:53:56;;;;;;;;;25.00;24.00;;;;;18.82;67.09;100349.69;5037647;28;9555;-63
2022/05/20 05:56:24;;;;;;;;;24.75;23.25;;;;;18.75;67.13;100348.66;5038040;28;8843;-64
2022/05/20 05:58:52;;;;;;;;;25.75;23.75;;;;;18.79;67.55;100358.13;5037623;28;8866;-64
2022/05/20 06:01:20;;;;;;;;;31.00;26.00;;;;;18.95;67.07;100352.78;5037432;28;9542;-63
2022/05/20 06:03:47;;;;;;;;;21.25;19.25;;;;;19.09;66.71;100346.75;5036092;28;8938;-63
2022/05/20 06:06:15;;;;;;;;;24.75;23.50;;;;;19.21;66.41;100345.41;5036687;28;8974;-64
2022/05/20 06:08:43;;;;;;;;;23.25;21.75;;;;;19.29;66.16;100341.91;5036987;28;8844;-64
2022/05/20 06:11:11;;;;;;;;;31.00;29.50;;;;;19.30;66.09;100336.34;5037208;28;8844;-64
2022/05/20 06:13:38;;;;;;;;;35.50;29.00;;;;;19.27;66.03;100328.56;5053464;28;8868;-64
2022/05/20 06:16:06;;;;;;;;;23.20;21.00;;;;;19.22;66.50;100330.06;5057276;28;8846;-64
2022/05/20 06:18:40;;;;;;;;;26.60;23.00;;;;;19.24;66.18;100322.66;5057108;28;9023;-63
2022/05/20 06:21:09;;;;;;;;;23.80;21.80;;;;;19.29;66.19;100320.28;5057194;28;8856;-64
2022/05/20 06:23:36;;;;;;;;;21.20;16.20;;;;;19.35;66.31;100316.94;5057105;28;8850;-64
2022/05/20 06:26:04;;;;;;;;;11.80;10.40;;;;;19.39;66.12;100313.72;5055771;28;8834;-64
2022/05/20 06:28:43;;;;;;;;;13.60;13.20;;;;;19.43;65.75;100317.75;5056697;28;8935;-64
2022/05/20 06:31:11;;;;;;;;;16.00;13.80;;;;;19.48;65.75;100303.72;5056975;28;8884;-64
2022/05/20 06:33:39;;;;;;;;;11.40;11.20;;;;;19.54;65.47;100303.91;5057652;28;8846;-64
2022/05/20 06:41:37;;;;;;;;;8.80;8.80;;;;;19.72;64.63;100303.72;5056609;28;8908;-64
2022/05/20 06:44:05;;;;;;;;;9.60;9.20;;;;;19.79;64.96;100305.56;5055584;28;8822;-63
2022/05/20 06:46:33;;;;;;;;;10.20;7.60;;;;;19.87;64.38;100310.13;5055292;28;8838;-63
2022/05/20 06:49:01;;;;;;;;;11.80;10.40;;;;;19.93;64.17;100312.97;5055517;28;8849;-64
2022/05/20 06:51:31;;;;;;;;;10.80;10.00;;;;;20.02;63.99;100306.53;5055565;28;8980;-64
2022/05/20 06:53:59;;;;;;;;;16.80;14.20;;;;;20.12;63.66;100306.38;5054766;28;8834;-64
2022/05/20 06:56:27;;;;;;;;;14.00;13.20;;;;;20.20;63.89;100309.03;5047952;28;8968;-64
2022/05/20 06:58:55;;;;;;;;;13.00;11.00;;;;;20.27;63.22;100304.63;5056067;28;8860;-63
2022/05/20 07:01:23;;;;;;;;;17.00;13.60;;;;;20.33;62.98;100307.47;5056271;28;8981;-64
2022/05/20 07:03:51;;;;;;;;;19.60;17.40;;;;;20.38;63.11;100302.38;5055930;28;8850;-64
2022/05/20 07:06:19;;;;;;;;;13.00;10.80;;;;;20.44;63.27;100292.72;5055464;28;8935;-64
2022/05/20 07:08:49;;;;;;;;;19.40;18.20;;;;;20.48;63.06;100292.19;5055709;28;8842;-65
2022/05/20 07:11:16;;;;;;;;;16.60;16.20;;;;;20.49;63.12;100288.44;5055386;28;8872;-64
2022/05/20 07:13:44;;;;;;;;;17.80;17.60;;;;;20.55;63.01;100282.34;5055909;28;8856;-64
2022/05/20 07:16:17;;;;;;;;;21.20;17.60;;;;;20.63;62.38;100281.47;5055015;28;8834;-64
2022/05/20 07:18:45;;;;;;;;;21.00;19.60;;;;;20.69;62.37;100272.63;5054395;28;8833;-63
2022/05/20 07:21:13;;;;;;;;;25.60;24.20;;;;;20.72;62.66;100275.84;5056304;28;9860;-64
2022/05/20 07:23:40;;;;;;;;;21.40;20.00;;;;;20.74;62.68;100276.50;5056115;28;8842;-64
2022/05/20 07:26:09;;;;;;;;;15.20;15.20;;;;;20.82;62.58;100276.44;5051077;28;8855;-64
2022/05/20 07:28:36;;;;;;;;;13.60;12.80;;;;;20.88;62.13;100272.19;5035030;28;9549;-64
2022/05/20 07:31:06;;;;;;;;;26.80;24.80;;;;;20.94;62.15;100277.72;5034541;28;8837;-64
2022/05/20 07:33:34;;;;;;;;;30.80;27.00;;;;;21.01;61.93;100275.97;5035196;28;8852;-64
2022/05/20 07:36:02;;;;;;;;;24.80;22.40;;;;;21.07;61.87;100278.84;5034952;28;8847;-64
2022/05/20 07:38:29;;;;;;;;;27.20;23.80;;;;;21.13;62.17;100274.53;5034635;28;8867;-63
2022/05/20 07:40:57;;;;;;;;;21.60;19.00;;;;;21.21;61.61;100280.75;5034737;28;9798;-64
2022/05/20 07:43:25;;;;;;;;;31.40;26.40;;;;;21.28;62.04;100273.59;5033681;28;8848;-63
2022/05/20 07:45:53;;;;;;;;;26.60;24.40;;;;;21.35;61.49;100270.97;5033703;28;8844;-63
2022/05/20 07:48:21;;;;;;;;;28.40;24.20;;;;;21.40;61.66;100260.44;5034239;28;8979;-68
2022/05/20 07:50:48;;;;;;;;;28.20;25.40;;;;;21.45;61.46;100261.56;5034187;28;8832;-63
2022/05/20 07:53:23;;;;;;;;;21.00;21.00;;;;;21.49;61.65;100254.75;5033775;28;8844;-64
2022/05/20 07:55:50;;;;;;;;;21.40;18.00;;;;;21.54;61.44;100254.19;5035097;28;8870;-65
2022/05/20 07:58:18;;;;;;;;;30.20;26.00;;;;;21.61;61.32;100239.72;5052876;28;8854;-64
2022/05/20 08:00:47;;;;;;;;;23.80;19.60;;;;;21.74;60.90;100236.41;5052228;28;8858;-64
2022/05/20 08:04:52;;;;;;;;;27.20;23.00;;;;;21.79;60.88;100229.38;5052870;28;8854;-64
2022/05/20 08:06:01;;;;;;;;;33.60;27.00;;;;;21.86;61.16;100230.31;5052532;28;9515;-63
2022/05/20 08:08:35;;;;;;;;;26.80;24.60;;;;;21.96;60.60;100213.78;5052930;28;8973;-68
2022/05/20 08:11:02;;;;;;;;;24.00;20.60;;;;;22.07;60.28;100207.84;5054074;28;8968;-64
2022/05/20 08:13:30;;;;;;;;;27.20;25.40;;;;;22.20;60.42;100197.19;5055052;28;8858;-64
2022/05/20 08:15:58;;;;;;;;;29.40;27.00;;;;;22.31;60.31;100194.00;5054147;28;8964;-64
2022/05/20 08:18:26;;;;;;;;;27.60;24.20;;;;;22.31;60.25;100181.25;5053654;28;8839;-64
2022/05/20 08:20:55;;;;;;;;;26.20;23.20;;;;;22.33;60.18;100194.63;5054095;28;8857;-63
2022/05/20 08:23:22;;;;;;;;;23.60;18.60;;;;;22.40;59.92;100199.09;5054453;28;8854;-64
2022/05/20 08:25:50;;;;;;;;;28.60;24.80;;;;;22.49;60.18;100197.16;5052572;28;8842;-64
2022/05/20 08:28:18;;;;;;;;;29.40;26.40;;;;;22.59;59.95;100186.81;5043193;28;8842;-66
2022/05/20 08:30:46;;;;;;;;;30.80;29.00;;;;;22.70;59.74;100192.56;5054243;28;8838;-65
2022/05/20 08:33:13;;;;;;;;;20.60;17.80;;;;;22.80;59.28;100184.09;5054445;28;8850;-64
2022/05/20 08:35:41;;;;;;;;;24.40;23.60;;;;;22.89;59.54;100174.78;5054413;28;8838;-64
2022/05/20 08:38:09;;;;;;;;;30.80;28.60;;;;;23.02;59.28;100180.34;5054098;28;8834;-64
2022/05/20 08:40:37;;;;;;;;;27.20;24.60;;;;;23.13;59.24;100174.41;5054503;28;8834;-63
2022/05/20 08:43:04;;;;;;;;;26.20;16.80;;;;;23.24;58.88;100171.16;5054040;28;8842;-64
2022/05/20 08:45:32;;;;;;;;;32.20;29.60;;;;;23.25;59.00;100167.41;5053328;28;8846;-64
2022/05/20 08:48:00;;;;;;;;;27.80;26.40;;;;;23.30;58.72;100157.59;5052508;28;8880;-64
2022/05/20 08:50:28;;;;;;;;;22.20;20.20;;;;;23.36;58.80;100158.72;5053979;28;8981;-63
2022/05/20 08:52:56;;;;;;;;;29.00;27.80;;;;;23.50;58.65;100166.75;5054381;28;8838;-64
2022/05/20 08:55:24;;;;;;;;;29.40;25.40;;;;;23.67;58.55;100161.84;5052578;28;8865;-64
2022/05/20 08:57:51;;;;;;;;;22.60;22.20;;;;;23.79;58.15;100157.50;5051754;28;8840;-64
2022/05/20 09:00:19;;;;;;;;;31.40;25.20;;;;;23.92;57.77;100144.00;5052918;28;8834;-65
2022/05/20 09:02:47;;;;;;;;;32.20;24.00;;;;;23.99;57.81;100144.88;5054123;28;8842;-64
2022/05/20 09:05:15;;;;;;;;;32.00;27.40;;;;;24.01;57.87;100156.38;5054020;28;8915;-64
2022/05/20 09:07:43;;;;;;;;;29.80;27.20;;;;;23.98;58.32;100154.91;5054272;28;8854;-64
2022/05/20 09:10:11;;;;;;;;;28.40;24.80;;;;;23.98;58.02;100149.47;5053521;28;8834;-64
2022/05/20 09:12:38;;;;;;;;;21.40;17.80;;;;;23.94;58.22;100150.94;5053687;28;8968;-64
2022/05/20 09:17:51;;;;;;;;;21.00;18.40;;;;;23.79;58.71;100142.03;5052936;28;8835;-64
2022/05/20 09:20:20;;;;;;;;;23.60;18.80;;;;;23.86;58.57;100148.38;5053317;28;8826;-65
2022/05/20 09:22:48;;;;;;;;;24.20;23.60;;;;;24.04;58.28;100145.13;5053627;28;8892;-65
2022/05/20 09:25:15;;;;;;;;;29.60;27.40;;;;;24.13;57.90;100146.63;5054317;28;8854;-70
2022/05/20 09:27:50;;;;;;;;;30.40;26.00;;;;;24.20;57.92;100142.84;5033142;28;8852;-64
2022/05/20 09:30:18;;;;;;;;;26.80;21.80;;;;;24.22;57.72;100129.06;5032981;28;8858;-64
2022/05/20 09:33:03;;;;;;;;;31.20;25.00;;;;;24.38;57.27;100106.88;5033684;28;8841;-64
2022/05/20 09:35:30;;;;;;;;;29.20;28.40;;;;;24.54;57.35;100106.50;5034262;28;8899;-65
2022/05/20 09:37:58;;;;;;;;;27.60;24.40;;;;;24.67;56.99;100112.84;5033187;28;9520;-64
2022/05/20 09:40:26;;;;;;;;;29.40;27.20;;;;;24.71;57.31;100105.94;5032171;28;8846;-64
2022/05/20 09:43:13;;;;;;;;;28.80;23.20;;;;;24.68;57.50;100098.19;5032307;28;8860;-64
2022/05/20 09:45:43;;;;;;;;;30.00;24.00;;;;;24.67;57.74;100103.84;5032644;28;8832;-64
2022/05/20 09:48:10;;;;;;;;;31.00;28.20;;;;;24.85;57.11;100101.31;5032035;28;8844;-64
2022/05/20 09:50:38;;;;;;;;;28.00;23.60;;;;;25.20;56.52;100094.59;5031488;28;8873;-64
2022/05/20 09:53:06;;;;;;;;;22.80;20.20;;;;;25.42;55.87;100096.06;5043035;28;8832;-68
2022/05/20 09:55:34;;;;;;;;;30.20;29.40;;;;;25.54;55.32;100099.81;5052163;28;8865;-64
2022/05/20 09:58:01;;;;;;;;;24.20;23.20;;;;;25.84;55.17;100093.59;5052909;28;8830;-64
2022/05/20 10:00:32;;;;;;;;;28.40;27.60;;;;;26.38;54.73;100099.44;5055863;28;8983;-65
2022/05/20 10:03:00;;;;;;;;;31.00;30.00;;;;;26.99;53.46;100086.81;5055845;28;8846;-65
2022/05/20 10:05:28;;;;;;;;;33.80;27.40;;;;;27.49;52.55;100089.31;5050573;28;8941;-64
2022/05/20 10:07:56;;;;;;;;;25.00;22.00;;;;;27.49;52.35;100081.09;5055020;28;8850;-65
2022/05/20 10:10:23;;;;;;;;;32.60;28.40;;;;;27.55;52.69;100073.88;5054206;28;8857;-65
2022/05/20 10:12:51;;;;;;;;;27.60;25.00;;;;;27.55;52.66;100082.91;5054774;28;8838;-64
2022/05/20 10:15:19;;;;;;;;;33.20;27.20;;;;;27.32;53.34;100066.31;5053435;28;8884;-65
2022/05/20 10:17:47;;;;;;;;;29.80;27.40;;;;;27.09;53.62;100062.56;5055172;28;8835;-65
2022/05/20 10:20:14;;;;;;;;;30.40;28.40;;;;;26.84;54.64;100051.63;5055236;28;8981;-64
2022/05/20 10:22:42;;;;;;;;;29.40;25.40;;;;;26.72;54.18;100047.94;5054786;28;8849;-64
2022/05/20 10:25:10;;;;;;;;;36.60;30.60;;;;;26.91;54.77;100035.16;5051664;28;9031;-64
2022/05/20 10:27:37;;;;;;;;;26.20;25.00;;;;;27.09;53.99;100024.25;5035286;28;9619;-65
2022/05/20 10:32:51;;;;;;;;;31.40;29.00;;;;;28.15;52.28;100013.47;5035286;28;8879;-65
2022/05/20 10:35:18;;;;;;;;;28.80;25.40;;;;;28.63;51.08;100016.13;5035073;28;8848;-65
2022/05/20 10:37:47;;;;;;;;;31.20;29.00;;;;;28.74;50.92;100007.94;5034059;28;8927;-66
2022/05/20 10:40:15;;;;;;;;;37.00;31.80;;;;;28.42;51.70;100001.09;5034184;28;8841;-64
2022/05/20 10:42:43;;;;;;;;;31.00;29.20;;;;;28.25;52.30;99999.22;5031277;28;8867;-65
2022/05/20 10:50:55;;;;;;;;;29.00;24.80;;;;;29.86;49.86;99979.97;5027361;28;8839;-64
2022/05/20 10:53:23;;;;;;;;;32.40;29.00;;;;;30.26;49.35;99972.53;5033568;28;8836;-65
2022/05/20 10:55:50;;;;;;;;;35.40;31.00;;;;;30.39;48.98;99966.72;5032034;28;8867;-65
2022/05/20 10:58:18;;;;;;;;;36.60;32.40;;;;;30.30;49.17;99959.94;5033438;28;8885;-65
2022/05/20 11:00:46;;;;;;;;;28.60;26.40;;;;;30.40;48.66;99955.47;5034585;28;9632;-62
2022/05/20 11:03:14;;;;;;;;;32.40;31.20;;;;;30.83;47.89;99945.44;5034583;28;8953;-62
2022/05/20 11:05:42;;;;;;;;;35.40;31.20;;;;;31.03;47.65;99932.00;5033892;28;8975;-63
2022/05/20 11:08:10;;;;;;;;;37.00;32.60;;;;;31.27;47.46;99924.38;5033569;28;9301;-62
2022/05/20 11:10:38;;;;;;;;;32.60;28.40;;;;;31.45;47.46;99910.25;5031924;28;8870;-62
2022/05/20 11:13:06;;;;;;;;;30.80;29.00;;;;;31.84;46.45;99896.13;5033541;28;8852;-62
2022/05/20 11:15:33;;;;;;;;;36.00;31.40;;;;;32.27;46.32;99892.41;5034749;28;8832;-62
2022/05/20 11:18:02;;;;;;;;;36.00;32.40;;;;;32.52;45.74;99890.69;5034775;28;8852;-62
2022/05/20 11:20:30;;;;;;;;;38.20;32.60;;;;;32.72;44.77;99879.78;5034601;28;8842;-62
2022/05/20 11:22:57;;;;;;;;;35.20;31.80;;;;;32.77;45.05;99876.25;5034181;28;8879;-62
2022/05/20 11:25:25;;;;;;;;;29.40;24.40;;;;;32.62;45.24;99862.34;5033676;28;8845;-65
2022/05/20 11:27:53;;;;;;;;;37.00;33.00;;;;;32.42;46.45;99857.53;5034508;28;8860;-62
2022/05/20 11:30:21;;;;;;;;;31.80;29.80;;;;;32.20;46.52;99848.50;5033845;28;8864;-63
2022/05/20 11:32:49;;;;;;;;;33.20;29.60;;;;;31.98;47.32;99831.22;5033890;28;8864;-63
2022/05/20 11:35:16;;;;;;;;;32.00;27.80;;;;;31.87;47.07;99825.88;5034195;28;8848;-62
2022/05/20 11:37:44;;;;;;;;;34.80;31.40;;;;;31.95;46.62;99828.16;5033475;28;8890;-62
2022/05/20 11:40:12;;;;;;;;;38.80;32.80;;;;;32.13;46.46;99820.31;5051536;28;8834;-63
2022/05/20 11:42:40;;;;;;;;;32.00;29.80;;;;;32.38;46.42;99816.94;5053543;28;8852;-69
2022/05/20 11:45:11;;;;;;;;;31.60;29.40;;;;;32.64;45.48;99814.06;5054123;28;8842;-63
2022/05/20 11:47:38;;;;;;;;;36.20;31.60;;;;;32.93;45.30;99809.78;5053818;28;8976;-63
2022/05/20 11:50:07;;;;;;;;;31.60;30.00;;;;;33.14;44.75;99806.00;5054018;28;8860;-63
2022/05/20 11:52:35;;;;;;;;;33.40;31.00;;;;;33.11;44.75;99800.19;5054031;28;8854;-64
2022/05/20 11:55:03;;;;;;;;;32.00;29.40;;;;;33.05;45.31;99795.75;5052313;28;8853;-63